createdAt,value
2022-11-12T00:00:42.788Z,0.20
2022-11-12T00:03:28.878Z,0.10
2022-11-12T00:06:15.117Z,0.20
2022-11-12T00:09:01.066Z,0.20
2022-11-12T00:11:47.076Z,0.30
2022-11-12T00:14:33.171Z,0.20
2022-11-12T00:17:18.959Z,0.20
2022-11-12T00:20:06.034Z,0.20
2022-11-12T00:22:51.959Z,0.30
2022-11-12T00:25:40.887Z,0.30
2022-11-12T00:28:26.965Z,0.40
2022-11-12T00:31:13.110Z,0.40
2022-11-12T00:33:58.943Z,0.30
2022-11-12T00:36:44.650Z,0.30
2022-11-12T00:39:30.709Z,0.20
2022-11-12T00:42:16.870Z,0.22
2022-11-12T00:45:02.958Z,0.20
2022-11-12T00:47:49.036Z,0.20
2022-11-12T00:50:35.068Z,0.30
2022-11-12T00:53:21.155Z,0.20
2022-11-12T00:56:07.835Z,0.20
2022-11-12T00:58:54.573Z,0.30
2022-11-12T01:01:40.876Z,0.30
2022-11-12T01:04:26.762Z,0.20
2022-11-12T01:07:12.657Z,0.30
2022-11-12T01:09:58.259Z,0.30
2022-11-12T01:12:44.197Z,0.20
2022-11-12T01:15:30.072Z,0.30
2022-11-12T01:18:16.043Z,0.40
2022-11-12T01:21:03.842Z,0.40
2022-11-12T01:23:50.055Z,0.20
2022-11-12T01:26:36.308Z,0.30
2022-11-12T01:29:22.504Z,0.30
2022-11-12T01:32:08.548Z,0.30
2022-11-12T01:34:54.596Z,0.30
2022-11-12T01:37:40.584Z,0.30
2022-11-12T01:40:26.565Z,0.30
2022-11-12T01:43:14.033Z,0.30
2022-11-12T01:46:08.319Z,0.20
2022-11-12T01:48:59.593Z,0.10
2022-11-12T01:51:51.055Z,0.32
2022-11-12T01:54:37.925Z,0.20
2022-11-12T01:57:34.962Z,0.35
2022-11-12T02:00:21.346Z,0.30
2022-11-12T02:03:13.169Z,0.30
2022-11-12T02:06:07.274Z,0.30
2022-11-12T02:08:54.062Z,0.20
2022-11-12T02:11:40.084Z,0.30
2022-11-12T02:14:25.966Z,0.30
2022-11-12T02:17:11.719Z,0.40
2022-11-12T02:20:01.645Z,0.38
2022-11-12T02:22:47.479Z,0.40
2022-11-12T02:25:34.731Z,0.30
2022-11-12T02:28:21.698Z,0.28
2022-11-12T02:31:07.434Z,0.40
2022-11-12T02:33:53.598Z,0.30
2022-11-12T02:36:39.697Z,0.40
2022-11-12T02:39:25.733Z,0.30
2022-11-12T02:42:11.338Z,0.40
2022-11-12T02:44:57.333Z,0.30
2022-11-12T02:47:43.653Z,0.30
2022-11-12T02:50:29.655Z,0.35
2022-11-12T02:53:15.510Z,0.40
2022-11-12T02:56:01.676Z,0.28
2022-11-12T02:58:47.449Z,0.35
2022-11-12T03:01:33.522Z,0.40
2022-11-12T03:04:19.295Z,0.30
2022-11-12T03:07:05.594Z,0.40
2022-11-12T03:09:52.104Z,0.50
2022-11-12T03:12:37.749Z,0.40
2022-11-12T03:15:23.887Z,0.55
2022-11-12T03:18:09.937Z,0.50
2022-11-12T03:20:55.931Z,0.47
2022-11-12T03:23:41.964Z,0.50
2022-11-12T03:26:31.689Z,0.40
2022-11-12T03:29:20.801Z,0.43
2022-11-12T03:32:06.830Z,0.40
2022-11-12T03:34:55.403Z,0.47
2022-11-12T03:37:41.920Z,0.47
2022-11-12T03:40:28.269Z,0.63
2022-11-12T03:43:14.537Z,0.55
2022-11-12T03:46:00.311Z,0.52
2022-11-12T03:48:46.457Z,0.57
2022-11-12T03:51:32.207Z,0.60
2022-11-12T03:54:18.231Z,0.50
2022-11-12T03:57:04.664Z,0.43
2022-11-12T03:59:50.359Z,0.40
2022-11-12T04:02:36.611Z,0.30
2022-11-12T04:05:41.803Z,0.50
2022-11-12T04:08:36.686Z,0.50
2022-11-12T04:11:22.975Z,0.32
2022-11-12T04:14:09.056Z,0.80
2022-11-12T04:17:13.484Z,0.40
2022-11-12T04:20:17.928Z,0.40
2022-11-12T04:23:04.028Z,0.40
2022-11-12T04:26:08.263Z,0.45
2022-11-12T04:29:12.719Z,0.50
2022-11-12T04:31:58.667Z,0.40
2022-11-12T04:34:44.557Z,0.60
2022-11-12T04:37:44.788Z,0.50
2022-11-12T04:40:50.713Z,0.52
2022-11-12T04:43:55.394Z,0.45
2022-11-12T04:46:41.400Z,0.90
2022-11-12T04:49:27.500Z,0.75
2022-11-12T04:52:13.506Z,0.70
2022-11-12T04:54:59.493Z,0.60
2022-11-12T04:57:45.339Z,0.98
2022-11-12T05:00:31.848Z,1.20
2022-11-12T05:03:18.066Z,1.73
2022-11-12T05:06:29.754Z,1.30
2022-11-12T05:12:02.287Z,0.70
2022-11-12T05:14:48.478Z,0.80
2022-11-12T05:17:34.597Z,0.77
2022-11-12T05:20:20.612Z,0.60
2022-11-12T05:23:07.598Z,0.60
2022-11-12T05:25:54.106Z,0.43
2022-11-12T05:28:40.147Z,0.73
2022-11-12T05:31:26.173Z,0.60
2022-11-12T05:34:12.403Z,0.60
2022-11-12T05:36:58.436Z,0.50
2022-11-12T05:39:44.286Z,0.55
2022-11-12T05:42:31.056Z,0.63
2022-11-12T05:45:16.727Z,0.50
2022-11-12T05:48:02.913Z,0.60
2022-11-12T05:51:12.020Z,0.47
2022-11-12T05:53:59.203Z,0.50
2022-11-12T05:56:45.548Z,0.60
2022-11-12T05:59:31.636Z,0.40
2022-11-12T06:02:17.504Z,0.50
2022-11-12T06:05:03.738Z,0.50
2022-11-12T06:07:49.562Z,0.50
2022-11-12T06:10:35.696Z,0.60
2022-11-12T06:13:23.683Z,0.60
2022-11-12T06:16:10.265Z,0.60
2022-11-12T06:18:56.656Z,0.55
2022-11-12T06:21:42.656Z,0.50
2022-11-12T06:24:35.086Z,0.63
2022-11-12T06:27:21.202Z,0.40
2022-11-12T06:30:08.604Z,0.60
2022-11-12T06:32:54.704Z,0.70
2022-11-12T06:35:43.139Z,0.60
2022-11-12T06:38:30.656Z,0.70
2022-11-12T06:41:16.665Z,0.50
2022-11-12T06:44:04.967Z,0.60
2022-11-12T06:46:51.241Z,0.52
2022-11-12T06:49:37.142Z,0.98
2022-11-12T06:52:23.132Z,0.50
2022-11-12T06:55:09.452Z,0.65
2022-11-12T06:57:55.291Z,0.68
2022-11-12T07:00:41.633Z,0.50
2022-11-12T07:03:27.396Z,0.60
2022-11-12T07:06:18.613Z,0.60
2022-11-12T07:09:05.333Z,0.60
2022-11-12T07:11:51.370Z,0.60
2022-11-12T07:14:37.320Z,0.68
2022-11-12T07:17:23.304Z,0.70
2022-11-12T07:20:10.192Z,0.75
2022-11-12T07:23:00.656Z,0.93
2022-11-12T07:25:46.642Z,0.80
2022-11-12T07:28:33.170Z,0.73
2022-11-12T07:31:20.642Z,0.73
2022-11-12T07:34:06.778Z,0.88
2022-11-12T07:36:52.681Z,0.70
2022-11-12T07:39:38.729Z,0.60
2022-11-12T07:42:24.817Z,0.70
2022-11-12T07:45:11.016Z,0.70
2022-11-12T07:47:59.525Z,0.70
2022-11-12T07:50:45.625Z,0.60
2022-11-12T07:53:32.170Z,0.93
2022-11-12T07:56:23.170Z,0.80
2022-11-12T07:59:09.368Z,0.70
2022-11-12T08:01:55.368Z,0.80
2022-11-12T08:04:41.190Z,0.82
2022-11-12T08:07:27.135Z,0.80
2022-11-12T08:10:13.081Z,0.75
2022-11-12T08:12:59.010Z,0.95
2022-11-12T08:15:49.473Z,0.90
2022-11-12T08:18:38.120Z,0.80
2022-11-12T08:21:23.961Z,0.90
2022-11-12T08:24:10.081Z,0.60
2022-11-12T08:26:55.693Z,0.73
2022-11-12T08:29:41.767Z,0.73
2022-11-12T08:32:27.629Z,0.90
2022-11-12T08:35:13.803Z,0.90
2022-11-12T08:38:04.935Z,0.98
2022-11-12T08:40:51.254Z,0.90
2022-11-12T08:43:37.966Z,0.80
2022-11-12T08:46:24.153Z,0.90
2022-11-12T08:49:10.342Z,1.27
2022-11-12T08:51:56.413Z,1.05
2022-11-12T08:54:42.275Z,1.23
2022-11-12T08:57:28.440Z,1.30
2022-11-12T09:00:14.949Z,1.50
2022-11-12T09:03:01.629Z,0.95
2022-11-12T09:05:48.777Z,1.20
2022-11-12T09:08:36.878Z,1.50
2022-11-12T09:11:22.944Z,1.30
2022-11-12T09:14:08.654Z,1.00
2022-11-12T09:16:55.197Z,0.90
2022-11-12T09:19:42.954Z,1.20
2022-11-12T09:22:33.714Z,1.63
2022-11-12T09:25:19.853Z,1.65
2022-11-12T09:28:11.727Z,1.33
2022-11-12T09:30:57.661Z,0.95
2022-11-12T09:33:43.528Z,1.15
2022-11-12T09:36:29.242Z,0.98
2022-11-12T09:39:15.160Z,1.10
2022-11-12T09:42:08.560Z,1.08
2022-11-12T09:45:06.500Z,1.30
2022-11-12T09:48:02.690Z,1.35
2022-11-12T09:51:01.188Z,2.28
2022-11-12T09:53:54.309Z,1.58
2022-11-12T09:56:40.620Z,1.55
2022-11-12T09:59:33.373Z,1.50
2022-11-12T10:03:02.310Z,1.35
2022-11-12T10:06:01.005Z,1.60
2022-11-12T10:08:53.911Z,1.40
2022-11-12T10:12:10.137Z,1.17
2022-11-12T10:15:48.463Z,1.40
2022-11-12T10:18:51.408Z,0.82
2022-11-12T10:22:02.202Z,0.98
2022-11-12T10:24:49.328Z,1.10
2022-11-12T10:27:42.901Z,1.10
2022-11-12T10:30:37.977Z,1.20
2022-11-12T10:33:23.910Z,1.10
2022-11-12T10:36:27.866Z,0.73
2022-11-12T10:39:38.908Z,0.90
2022-11-12T10:42:25.072Z,1.00
2022-11-12T10:45:23.459Z,1.02
2022-11-12T10:48:31.264Z,1.30
2022-11-12T10:51:35.160Z,1.50
2022-11-12T10:54:27.502Z,1.58
2022-11-12T10:57:31.438Z,0.73
2022-11-12T11:00:21.240Z,0.90
2022-11-12T11:03:25.910Z,0.90
2022-11-12T11:06:14.755Z,0.80
2022-11-12T11:09:17.396Z,0.80
2022-11-12T11:15:07.597Z,0.82
2022-11-12T11:17:53.672Z,0.65
2022-11-12T11:20:47.881Z,0.70
2022-11-12T11:24:05.348Z,0.70
2022-11-12T11:27:06.151Z,0.60
2022-11-12T11:30:16.753Z,0.73
2022-11-12T11:33:40.093Z,0.57
2022-11-12T11:37:01.179Z,1.00
2022-11-12T11:40:03.122Z,0.75
2022-11-12T11:43:16.018Z,1.42
2022-11-12T11:46:23.131Z,1.30
2022-11-12T11:49:34.144Z,0.70
2022-11-12T11:52:44.786Z,0.60
2022-11-12T11:55:56.520Z,0.80
2022-11-12T11:59:24.502Z,0.73
2022-11-12T12:02:46.955Z,0.70
2022-11-12T12:06:00.331Z,0.75
2022-11-12T12:09:08.615Z,1.30
2022-11-12T12:12:03.343Z,1.20
2022-11-12T12:15:01.984Z,1.65
2022-11-12T12:17:59.268Z,1.73
2022-11-12T12:20:45.353Z,1.90
2022-11-12T12:23:39.675Z,2.22
2022-11-12T12:26:42.685Z,2.83
2022-11-12T12:29:43.573Z,3.03
2022-11-12T12:32:39.255Z,3.00
2022-11-12T12:35:35.170Z,3.30
2022-11-12T12:38:58.195Z,2.90
2022-11-12T12:41:56.629Z,2.80
2022-11-12T12:45:05.652Z,2.28
2022-11-12T12:47:54.402Z,2.50
2022-11-12T12:50:42.508Z,2.75
2022-11-12T12:53:32.216Z,2.88
2022-11-12T12:56:24.115Z,2.70
2022-11-12T13:06:08.599Z,2.30
2022-11-12T13:08:59.715Z,2.35
2022-11-12T13:12:03.993Z,2.40
2022-11-12T13:15:08.763Z,2.58
2022-11-12T13:17:54.765Z,2.42
2022-11-12T13:20:43.219Z,2.22
2022-11-12T13:24:03.877Z,2.63
2022-11-12T13:26:53.144Z,2.67
2022-11-12T13:29:41.269Z,2.40
2022-11-12T13:32:34.246Z,2.85
2022-11-12T13:35:23.641Z,3.05
2022-11-12T13:38:09.369Z,3.20
2022-11-12T13:41:16.608Z,2.85
2022-11-12T13:44:07.941Z,3.10
2022-11-12T13:46:56.696Z,3.40
2022-11-12T13:49:46.047Z,3.30
2022-11-12T13:52:33.696Z,3.28
2022-11-12T13:55:22.995Z,3.35
2022-11-12T13:58:31.768Z,2.92
2022-11-12T14:01:22.519Z,3.28
2022-11-12T14:04:13.585Z,3.25
2022-11-12T14:07:31.076Z,3.10
2022-11-12T14:10:46.550Z,2.97
2022-11-12T14:13:45.259Z,2.65
2022-11-12T14:16:49.464Z,3.13
2022-11-12T14:20:05.070Z,2.90
2022-11-12T14:22:51.882Z,3.55
2022-11-12T14:25:54.220Z,2.75
2022-11-12T14:28:40.506Z,3.08
2022-11-12T14:31:26.702Z,2.67
2022-11-12T14:34:28.800Z,2.90
2022-11-12T14:37:56.108Z,2.80
2022-11-12T14:41:09.240Z,2.75
2022-11-12T14:44:12.701Z,2.38
2022-11-12T14:46:59.925Z,1.45
2022-11-12T14:49:49.219Z,2.38
2022-11-12T14:52:44.137Z,2.67
2022-11-12T14:55:34.168Z,2.90
2022-11-12T14:58:21.724Z,2.60
2022-11-12T15:04:38.207Z,2.10
2022-11-12T15:07:30.130Z,1.60
2022-11-12T15:10:33.642Z,3.58
2022-11-12T15:13:22.769Z,2.05
2022-11-12T15:16:10.348Z,2.10
2022-11-12T15:19:06.681Z,2.30
2022-11-12T15:21:55.508Z,1.38
2022-11-12T15:24:44.111Z,1.58
2022-11-12T15:27:40.540Z,1.90
2022-11-12T15:30:32.158Z,1.17
2022-11-12T15:33:23.037Z,1.35
2022-11-12T15:36:18.382Z,1.77
2022-11-12T15:39:11.445Z,1.67
2022-11-12T15:42:06.169Z,1.15
2022-11-12T15:45:04.374Z,1.80
2022-11-12T15:47:50.038Z,1.60
2022-11-12T15:50:36.011Z,1.48
2022-11-12T15:53:21.828Z,1.25
2022-11-12T15:56:13.907Z,1.35
2022-11-12T15:58:59.712Z,1.25
2022-11-12T16:01:46.193Z,0.80
2022-11-12T16:04:31.983Z,1.02
2022-11-12T16:07:18.040Z,0.93
2022-11-12T16:10:04.355Z,1.00
2022-11-12T16:12:52.122Z,0.75
2022-11-12T16:15:37.898Z,1.35
2022-11-12T16:18:23.911Z,3.28
2022-11-12T16:21:10.016Z,1.05
2022-11-12T16:23:56.080Z,0.90
2022-11-12T16:26:42.143Z,0.98
2022-11-12T16:29:28.143Z,1.50
2022-11-12T16:32:14.708Z,0.75
2022-11-12T16:35:01.460Z,1.02
2022-11-12T16:37:55.289Z,0.80
2022-11-12T16:40:41.800Z,1.05
2022-11-12T16:43:28.230Z,1.15
2022-11-12T16:46:29.649Z,0.90
2022-11-12T16:49:16.075Z,0.98
2022-11-12T16:52:01.941Z,0.65
2022-11-12T16:54:47.760Z,0.80
2022-11-12T16:57:33.968Z,0.70
2022-11-12T17:00:20.203Z,0.70
2022-11-12T17:03:06.098Z,1.00
2022-11-12T17:05:53.098Z,0.68
2022-11-12T17:08:39.408Z,0.57
2022-11-12T17:11:25.717Z,0.70
2022-11-12T17:14:11.635Z,0.70
2022-11-12T17:16:57.527Z,0.60
2022-11-12T17:19:43.586Z,0.70
2022-11-12T17:22:31.596Z,0.50
2022-11-12T17:25:18.021Z,0.65
2022-11-12T17:28:03.720Z,0.50
2022-11-12T17:30:49.686Z,0.50
2022-11-12T17:33:40.401Z,0.50
2022-11-12T17:36:28.877Z,0.60
2022-11-12T17:39:14.808Z,0.60
2022-11-12T17:42:00.668Z,0.57
2022-11-12T17:44:46.789Z,0.60
2022-11-12T17:47:36.653Z,0.65
2022-11-12T17:50:25.169Z,1.10
2022-11-12T17:53:11.566Z,0.90
2022-11-12T17:55:58.216Z,1.00
2022-11-12T17:58:48.695Z,0.75
2022-11-12T18:01:35.296Z,1.02
2022-11-12T18:04:23.648Z,0.90
2022-11-12T18:07:10.210Z,0.70
2022-11-12T18:09:56.261Z,0.68
2022-11-12T18:12:42.569Z,0.60
2022-11-12T18:15:30.757Z,0.60
2022-11-12T18:18:16.930Z,0.50
2022-11-12T18:21:03.004Z,0.40
2022-11-12T18:23:48.872Z,0.50
2022-11-12T18:26:35.558Z,0.70
2022-11-12T18:29:21.510Z,0.80
2022-11-12T18:32:10.357Z,0.50
2022-11-12T18:35:04.988Z,0.70
2022-11-12T18:37:58.537Z,0.60
2022-11-12T18:40:44.692Z,0.60
2022-11-12T18:43:31.060Z,0.50
2022-11-12T18:46:16.842Z,0.80
2022-11-12T18:49:02.958Z,0.57
2022-11-12T18:51:49.235Z,0.47
2022-11-12T18:54:39.216Z,0.50
2022-11-12T18:57:25.317Z,0.70
2022-11-12T19:00:14.095Z,0.50
2022-11-12T19:03:00.369Z,1.17
2022-11-12T19:05:46.853Z,0.90
2022-11-12T19:08:33.570Z,0.80
2022-11-12T19:11:22.062Z,0.82
2022-11-12T19:14:09.410Z,0.93
2022-11-12T19:16:55.131Z,1.10
2022-11-12T19:19:41.604Z,1.10
2022-11-12T19:22:27.896Z,0.90
2022-11-12T19:25:14.181Z,0.98
2022-11-12T19:28:00.094Z,0.88
2022-11-12T19:30:46.087Z,0.73
2022-11-12T19:33:32.971Z,0.70
2022-11-12T19:36:22.914Z,0.70
2022-11-12T19:39:10.896Z,0.88
2022-11-12T19:41:57.141Z,0.80
2022-11-12T19:44:43.406Z,0.60
2022-11-12T19:47:30.956Z,0.77
2022-11-12T19:50:22.158Z,0.90
2022-11-12T19:53:11.169Z,0.57
2022-11-12T19:56:01.156Z,0.50
2022-11-12T19:58:48.999Z,0.57
2022-11-12T20:01:35.185Z,0.50
2022-11-12T20:04:24.386Z,0.75
2022-11-12T20:07:10.141Z,0.90
2022-11-12T20:10:00.721Z,0.60
2022-11-12T20:12:47.440Z,0.93
2022-11-12T20:15:33.471Z,0.93
2022-11-12T20:18:19.789Z,0.70
2022-11-12T20:21:06.564Z,0.70
2022-11-12T20:23:52.483Z,0.73
2022-11-12T20:26:38.572Z,0.90
2022-11-12T20:29:24.777Z,0.85
2022-11-12T20:32:10.904Z,0.60
2022-11-12T20:34:56.761Z,0.90
2022-11-12T20:37:42.858Z,0.80
2022-11-12T20:40:28.876Z,0.82
2022-11-12T20:43:15.639Z,0.80
2022-11-12T20:46:01.611Z,0.90
2022-11-12T20:48:47.288Z,0.90
2022-11-12T20:51:35.233Z,0.80
2022-11-12T20:54:21.254Z,0.98
2022-11-12T20:57:06.863Z,0.80
2022-11-12T20:59:53.026Z,0.82
2022-11-12T21:02:39.174Z,0.80
2022-11-12T21:05:25.389Z,0.70
2022-11-12T21:08:11.276Z,0.90
2022-11-12T21:10:58.329Z,0.80
2022-11-12T21:13:44.445Z,0.80
2022-11-12T21:16:30.570Z,0.90
2022-11-12T21:19:17.175Z,1.00
2022-11-12T21:22:03.278Z,1.10
2022-11-12T21:24:49.369Z,0.95
2022-11-12T21:27:35.181Z,1.02
2022-11-12T21:30:21.198Z,0.90
2022-11-12T21:33:06.835Z,0.80
2022-11-12T21:35:53.694Z,0.80
2022-11-12T21:38:39.633Z,0.70
2022-11-12T21:41:28.428Z,0.70
2022-11-12T21:44:14.179Z,0.70
2022-11-12T21:47:00.483Z,0.70
2022-11-12T21:49:46.375Z,0.82
2022-11-12T21:52:32.426Z,0.80
2022-11-12T21:55:18.225Z,0.70
2022-11-12T21:58:04.210Z,0.60
2022-11-12T22:00:50.117Z,0.70
2022-11-12T22:03:36.127Z,0.65
2022-11-12T22:06:24.238Z,0.70
2022-11-12T22:09:10.031Z,0.70
2022-11-12T22:11:56.135Z,0.70
2022-11-12T22:14:42.121Z,0.68
2022-11-12T22:17:33.818Z,1.63
2022-11-12T22:20:20.114Z,1.73
2022-11-12T22:23:05.986Z,1.30
2022-11-12T22:25:52.830Z,0.88
2022-11-12T22:28:38.798Z,0.80
2022-11-12T22:31:30.474Z,0.82
2022-11-12T22:34:16.451Z,0.70
2022-11-12T22:44:10.536Z,0.68
2022-11-12T22:46:56.887Z,0.80
2022-11-12T22:49:42.722Z,0.80
2022-11-12T22:52:29.369Z,0.80
2022-11-12T22:55:15.588Z,0.80
2022-11-12T22:58:01.271Z,0.88
2022-11-12T23:00:47.372Z,1.00
2022-11-12T23:03:34.539Z,1.10
2022-11-12T23:06:20.712Z,0.85
2022-11-12T23:09:06.899Z,0.90
2022-11-12T23:11:53.077Z,1.10
2022-11-12T23:14:38.859Z,1.30
2022-11-12T23:17:24.997Z,1.00
2022-11-12T23:20:11.396Z,0.90
2022-11-12T23:22:57.288Z,0.90
2022-11-12T23:25:43.407Z,0.90
2022-11-12T23:28:29.754Z,1.00
2022-11-12T23:31:19.088Z,0.90
2022-11-12T23:34:05.080Z,0.82
2022-11-12T23:36:50.856Z,0.95
2022-11-12T23:39:36.785Z,1.15
2022-11-12T23:42:22.715Z,0.70
2022-11-12T23:45:09.423Z,0.80
2022-11-12T23:47:57.399Z,0.95
2022-11-12T23:50:43.384Z,1.00
2022-11-12T23:53:29.429Z,1.10
2022-11-12T23:56:18.441Z,1.27
2022-11-12T23:59:04.579Z,1.27
